sensor_id;sensor_type;location;lat;lon;timestamp;pressure;altitude;pressure_sealevel;temperature
71564;BMP180;59391;52.504;13.438;2022-12-24T00:00:30;99870.00;;;10.50
71564;BMP180;59391;52.504;13.438;2022-12-24T00:02:55;99905.00;;;10.50
71564;BMP180;59391;52.504;13.438;2022-12-24T00:05:24;99874.00;;;10.50
71564;BMP180;59391;52.504;13.438;2022-12-24T00:07:52;99909.00;;;10.50
71564;BMP180;59391;52.504;13.438;2022-12-24T00:10:18;99905.00;;;10.50
71564;BMP180;59391;52.504;13.438;2022-12-24T00:12:43;99901.00;;;10.50
71564;BMP180;59391;52.504;13.438;2022-12-24T00:15:10;99907.00;;;10.50
71564;BMP180;59391;52.504;13.438;2022-12-24T00:17:35;99891.00;;;10.50
71564;BMP180;59391;52.504;13.438;2022-12-24T00:20:01;99914.00;;;10.50
71564;BMP180;59391;52.504;13.438;2022-12-24T00:22:28;99907.00;;;10.50
71564;BMP180;59391;52.504;13.438;2022-12-24T00:24:54;99894.00;;;10.40
71564;BMP180;59391;52.504;13.438;2022-12-24T00:27:20;99901.00;;;10.50
71564;BMP180;59391;52.504;13.438;2022-12-24T00:29:45;99910.00;;;10.50
71564;BMP180;59391;52.504;13.438;2022-12-24T00:32:11;99906.00;;;10.50
71564;BMP180;59391;52.504;13.438;2022-12-24T00:34:37;99903.00;;;10.50
71564;BMP180;59391;52.504;13.438;2022-12-24T00:37:03;99909.00;;;10.40
71564;BMP180;59391;52.504;13.438;2022-12-24T00:39:29;99903.00;;;10.40
71564;BMP180;59391;52.504;13.438;2022-12-24T00:41:55;99878.00;;;10.40
71564;BMP180;59391;52.504;13.438;2022-12-24T00:44:21;99914.00;;;10.40
71564;BMP180;59391;52.504;13.438;2022-12-24T00:46:49;99913.00;;;10.30
71564;BMP180;59391;52.504;13.438;2022-12-24T00:49:15;99915.00;;;10.30
71564;BMP180;59391;52.504;13.438;2022-12-24T00:51:41;99901.00;;;10.30
71564;BMP180;59391;52.504;13.438;2022-12-24T00:54:07;99922.00;;;10.40
71564;BMP180;59391;52.504;13.438;2022-12-24T00:56:33;99925.00;;;10.30
71564;BMP180;59391;52.504;13.438;2022-12-24T00:58:58;99924.00;;;10.30
71564;BMP180;59391;52.504;13.438;2022-12-24T01:01:25;99917.00;;;10.40
71564;BMP180;59391;52.504;13.438;2022-12-24T01:03:51;99924.00;;;10.40
71564;BMP180;59391;52.504;13.438;2022-12-24T01:06:37;99938.00;;;10.40
71564;BMP180;59391;52.504;13.438;2022-12-24T01:09:02;99934.00;;;10.40
71564;BMP180;59391;52.504;13.438;2022-12-24T01:11:28;99911.00;;;10.40
71564;BMP180;59391;52.504;13.438;2022-12-24T01:13:55;99947.00;;;10.30
71564;BMP180;59391;52.504;13.438;2022-12-24T01:16:20;99948.00;;;10.40
71564;BMP180;59391;52.504;13.438;2022-12-24T01:18:47;99936.00;;;10.40
71564;BMP180;59391;52.504;13.438;2022-12-24T01:21:14;99956.00;;;10.40
71564;BMP180;59391;52.504;13.438;2022-12-24T01:23:40;99956.00;;;10.40
71564;BMP180;59391;52.504;13.438;2022-12-24T01:26:05;99934.00;;;10.40
71564;BMP180;59391;52.504;13.438;2022-12-24T01:28:32;99960.00;;;10.40
71564;BMP180;59391;52.504;13.438;2022-12-24T01:30:58;99942.00;;;10.40
71564;BMP180;59391;52.504;13.438;2022-12-24T01:33:28;99945.00;;;10.40
71564;BMP180;59391;52.504;13.438;2022-12-24T01:35:56;99959.00;;;10.40
71564;BMP180;59391;52.504;13.438;2022-12-24T01:38:22;99951.00;;;10.30
71564;BMP180;59391;52.504;13.438;2022-12-24T01:40:47;99900.00;;;10.40
71564;BMP180;59391;52.504;13.438;2022-12-24T01:43:32;99959.00;;;10.40
71564;BMP180;59391;52.504;13.438;2022-12-24T01:46:13;99956.00;;;10.40
71564;BMP180;59391;52.504;13.438;2022-12-24T01:48:48;99961.00;;;10.40
71564;BMP180;59391;52.504;13.438;2022-12-24T01:51:38;99968.00;;;10.40
71564;BMP180;59391;52.504;13.438;2022-12-24T01:54:31;99962.00;;;10.40
71564;BMP180;59391;52.504;13.438;2022-12-24T01:57:08;99947.00;;;10.40
71564;BMP180;59391;52.504;13.438;2022-12-24T01:59:36;99954.00;;;10.40
71564;BMP180;59391;52.504;13.438;2022-12-24T02:02:03;99970.00;;;10.40
71564;BMP180;59391;52.504;13.438;2022-12-24T02:07:46;99981.00;;;10.40
71564;BMP180;59391;52.504;13.438;2022-12-24T02:10:15;99985.00;;;10.40
71564;BMP180;59391;52.504;13.438;2022-12-24T02:12:42;99991.00;;;10.40
71564;BMP180;59391;52.504;13.438;2022-12-24T02:15:13;99978.00;;;10.40
71564;BMP180;59391;52.504;13.438;2022-12-24T02:18:06;100006.00;;;10.40
71564;BMP180;59391;52.504;13.438;2022-12-24T02:21:11;100007.00;;;10.40
71564;BMP180;59391;52.504;13.438;2022-12-24T02:27:06;100004.00;;;10.40
71564;BMP180;59391;52.504;13.438;2022-12-24T02:30:07;100022.00;;;10.40
71564;BMP180;59391;52.504;13.438;2022-12-24T02:33:10;100029.00;;;10.40
71564;BMP180;59391;52.504;13.438;2022-12-24T02:36:57;100027.00;;;10.40
71564;BMP180;59391;52.504;13.438;2022-12-24T02:39:05;100036.00;;;10.40
71564;BMP180;59391;52.504;13.438;2022-12-24T02:41:40;100039.00;;;10.50
71564;BMP180;59391;52.504;13.438;2022-12-24T02:44:29;100035.00;;;10.50
71564;BMP180;59391;52.504;13.438;2022-12-24T02:46:58;100037.00;;;10.50
71564;BMP180;59391;52.504;13.438;2022-12-24T02:49:24;100039.00;;;10.50
71564;BMP180;59391;52.504;13.438;2022-12-24T02:51:50;100046.00;;;10.50
71564;BMP180;59391;52.504;13.438;2022-12-24T02:54:16;100045.00;;;10.50
71564;BMP180;59391;52.504;13.438;2022-12-24T03:00:08;100061.00;;;10.50
71564;BMP180;59391;52.504;13.438;2022-12-24T03:02:58;100063.00;;;10.50
71564;BMP180;59391;52.504;13.438;2022-12-24T03:08:46;100070.00;;;10.50
71564;BMP180;59391;52.504;13.438;2022-12-24T03:11:14;100064.00;;;10.50
71564;BMP180;59391;52.504;13.438;2022-12-24T03:13:41;100077.00;;;10.50
71564;BMP180;59391;52.504;13.438;2022-12-24T03:16:12;100067.00;;;10.50
71564;BMP180;59391;52.504;13.438;2022-12-24T03:18:44;100078.00;;;10.30
71564;BMP180;59391;52.504;13.438;2022-12-24T03:21:28;100086.00;;;10.30
71564;BMP180;59391;52.504;13.438;2022-12-24T03:23:55;100015.00;;;10.50
71564;BMP180;59391;52.504;13.438;2022-12-24T03:26:24;100059.00;;;10.50
71564;BMP180;59391;52.504;13.438;2022-12-24T03:28:50;100086.00;;;10.40
71564;BMP180;59391;52.504;13.438;2022-12-24T03:31:19;100091.00;;;10.50
71564;BMP180;59391;52.504;13.438;2022-12-24T03:34:32;99999.00;;;10.50
71564;BMP180;59391;52.504;13.438;2022-12-24T03:37:18;100016.00;;;10.50
71564;BMP180;59391;52.504;13.438;2022-12-24T03:39:44;99985.00;;;10.50
71564;BMP180;59391;52.504;13.438;2022-12-24T03:42:18;100117.00;;;10.30
71564;BMP180;59391;52.504;13.438;2022-12-24T03:44:56;100065.00;;;10.50
71564;BMP180;59391;52.504;13.438;2022-12-24T03:47:27;100023.00;;;10.50
71564;BMP180;59391;52.504;13.438;2022-12-24T03:49:58;100029.00;;;10.50
71564;BMP180;59391;52.504;13.438;2022-12-24T03:52:30;99991.00;;;10.40
71564;BMP180;59391;52.504;13.438;2022-12-24T03:55:04;100150.00;;;10.50
71564;BMP180;59391;52.504;13.438;2022-12-24T03:57:41;100153.00;;;10.40
71564;BMP180;59391;52.504;13.438;2022-12-24T04:00:23;100171.00;;;10.30
71564;BMP180;59391;52.504;13.438;2022-12-24T04:02:57;100077.00;;;10.40
71564;BMP180;59391;52.504;13.438;2022-12-24T04:05:28;100125.00;;;10.50
71564;BMP180;59391;52.504;13.438;2022-12-24T04:07:59;100151.00;;;10.50
71564;BMP180;59391;52.504;13.438;2022-12-24T04:10:29;100003.00;;;10.30
71564;BMP180;59391;52.504;13.438;2022-12-24T04:13:04;100155.00;;;10.30
71564;BMP180;59391;52.504;13.438;2022-12-24T04:15:32;100148.00;;;10.50
71564;BMP180;59391;52.504;13.438;2022-12-24T04:18:00;100027.00;;;10.50
71564;BMP180;59391;52.504;13.438;2022-12-24T04:20:31;100035.00;;;10.40
71564;BMP180;59391;52.504;13.438;2022-12-24T04:23:08;100137.00;;;10.40
71564;BMP180;59391;52.504;13.438;2022-12-24T04:25:36;99994.00;;;10.30
71564;BMP180;59391;52.504;13.438;2022-12-24T04:28:25;100151.00;;;10.30
71564;BMP180;59391;52.504;13.438;2022-12-24T04:31:08;100089.00;;;10.40
71564;BMP180;59391;52.504;13.438;2022-12-24T04:33:39;100159.00;;;10.30
71564;BMP180;59391;52.504;13.438;2022-12-24T04:36:51;100171.00;;;10.30
71564;BMP180;59391;52.504;13.438;2022-12-24T04:39:33;100155.00;;;10.40
71564;BMP180;59391;52.504;13.438;2022-12-24T04:42:04;100068.00;;;10.40
71564;BMP180;59391;52.504;13.438;2022-12-24T04:44:32;100166.00;;;10.00
71564;BMP180;59391;52.504;13.438;2022-12-24T04:47:07;100159.00;;;10.40
71564;BMP180;59391;52.504;13.438;2022-12-24T04:49:59;100199.00;;;10.40
71564;BMP180;59391;52.504;13.438;2022-12-24T04:55:58;100193.00;;;10.40
71564;BMP180;59391;52.504;13.438;2022-12-24T04:58:46;100213.00;;;10.40
71564;BMP180;59391;52.504;13.438;2022-12-24T05:01:41;100044.00;;;10.30
71564;BMP180;59391;52.504;13.438;2022-12-24T05:04:22;100168.00;;;10.40
71564;BMP180;59391;52.504;13.438;2022-12-24T05:07:06;100147.00;;;10.40
71564;BMP180;59391;52.504;13.438;2022-12-24T05:09:36;100133.00;;;10.40
71564;BMP180;59391;52.504;13.438;2022-12-24T05:12:05;100105.00;;;10.30
71564;BMP180;59391;52.504;13.438;2022-12-24T05:14:43;100226.00;;;10.10
71564;BMP180;59391;52.504;13.438;2022-12-24T05:17:09;100221.00;;;10.20
71564;BMP180;59391;52.504;13.438;2022-12-24T05:19:40;100153.00;;;10.10
71564;BMP180;59391;52.504;13.438;2022-12-24T05:22:08;100095.00;;;10.30
71564;BMP180;59391;52.504;13.438;2022-12-24T05:25:16;100129.00;;;10.30
71564;BMP180;59391;52.504;13.438;2022-12-24T05:28:02;100105.00;;;10.20
71564;BMP180;59391;52.504;13.438;2022-12-24T05:30:42;100062.00;;;10.10
71564;BMP180;59391;52.504;13.438;2022-12-24T05:33:08;100116.00;;;10.20
71564;BMP180;59391;52.504;13.438;2022-12-24T05:36:20;100232.00;;;10.10
71564;BMP180;59391;52.504;13.438;2022-12-24T05:39:01;100111.00;;;10.00
71564;BMP180;59391;52.504;13.438;2022-12-24T05:41:35;100084.00;;;9.80
71564;BMP180;59391;52.504;13.438;2022-12-24T05:44:08;100213.00;;;10.10
71564;BMP180;59391;52.504;13.438;2022-12-24T05:47:19;100130.00;;;10.00
71564;BMP180;59391;52.504;13.438;2022-12-24T05:50:35;100219.00;;;10.10
71564;BMP180;59391;52.504;13.438;2022-12-24T05:53:15;100240.00;;;10.10
71564;BMP180;59391;52.504;13.438;2022-12-24T05:56:51;100089.00;;;10.00
71564;BMP180;59391;52.504;13.438;2022-12-24T06:00:13;100203.00;;;10.00
71564;BMP180;59391;52.504;13.438;2022-12-24T06:03:00;100261.00;;;9.80
71564;BMP180;59391;52.504;13.438;2022-12-24T06:06:14;100160.00;;;10.00
71564;BMP180;59391;52.504;13.438;2022-12-24T06:08:57;100193.00;;;10.00
71564;BMP180;59391;52.504;13.438;2022-12-24T06:11:27;100266.00;;;9.50
71564;BMP180;59391;52.504;13.438;2022-12-24T06:14:09;100141.00;;;9.80
71564;BMP180;59391;52.504;13.438;2022-12-24T06:19:49;100256.00;;;10.00
71564;BMP180;59391;52.504;13.438;2022-12-24T06:22:43;100266.00;;;9.90
71564;BMP180;59391;52.504;13.438;2022-12-24T06:26:15;100116.00;;;9.90
71564;BMP180;59391;52.504;13.438;2022-12-24T06:28:53;100255.00;;;9.80
71564;BMP180;59391;52.504;13.438;2022-12-24T06:31:25;100240.00;;;9.90
71564;BMP180;59391;52.504;13.438;2022-12-24T06:36:37;100267.00;;;9.90
71564;BMP180;59391;52.504;13.438;2022-12-24T06:39:03;100281.00;;;9.90
71564;BMP180;59391;52.504;13.438;2022-12-24T06:41:28;100291.00;;;9.90
71564;BMP180;59391;52.504;13.438;2022-12-24T06:43:54;100279.00;;;10.00
71564;BMP180;59391;52.504;13.438;2022-12-24T06:46:20;100287.00;;;10.00
71564;BMP180;59391;52.504;13.438;2022-12-24T06:48:47;100283.00;;;10.00
71564;BMP180;59391;52.504;13.438;2022-12-24T06:51:14;100287.00;;;10.00
71564;BMP180;59391;52.504;13.438;2022-12-24T06:53:40;100284.00;;;10.00
71564;BMP180;59391;52.504;13.438;2022-12-24T06:56:10;100286.00;;;10.00
71564;BMP180;59391;52.504;13.438;2022-12-24T06:58:36;100283.00;;;10.00
71564;BMP180;59391;52.504;13.438;2022-12-24T07:01:04;100284.00;;;10.00
71564;BMP180;59391;52.504;13.438;2022-12-24T07:03:31;100303.00;;;10.00
71564;BMP180;59391;52.504;13.438;2022-12-24T07:05:57;100291.00;;;10.00
71564;BMP180;59391;52.504;13.438;2022-12-24T07:08:23;100296.00;;;9.90
71564;BMP180;59391;52.504;13.438;2022-12-24T07:10:51;100296.00;;;9.90
71564;BMP180;59391;52.504;13.438;2022-12-24T07:13:17;100312.00;;;9.90
71564;BMP180;59391;52.504;13.438;2022-12-24T07:15:44;100317.00;;;9.90
71564;BMP180;59391;52.504;13.438;2022-12-24T07:18:11;100320.00;;;9.90
71564;BMP180;59391;52.504;13.438;2022-12-24T07:20:37;100326.00;;;9.90
71564;BMP180;59391;52.504;13.438;2022-12-24T07:23:03;100324.00;;;9.90
71564;BMP180;59391;52.504;13.438;2022-12-24T07:25:29;100335.00;;;10.00
71564;BMP180;59391;52.504;13.438;2022-12-24T07:27:55;100356.00;;;10.00
71564;BMP180;59391;52.504;13.438;2022-12-24T07:30:21;100352.00;;;10.00
71564;BMP180;59391;52.504;13.438;2022-12-24T07:32:47;100344.00;;;10.00
71564;BMP180;59391;52.504;13.438;2022-12-24T07:35:12;100351.00;;;10.00
71564;BMP180;59391;52.504;13.438;2022-12-24T07:37:38;100345.00;;;10.00
71564;BMP180;59391;52.504;13.438;2022-12-24T07:40:04;100350.00;;;10.00
71564;BMP180;59391;52.504;13.438;2022-12-24T07:42:34;100357.00;;;10.00
71564;BMP180;59391;52.504;13.438;2022-12-24T07:44:59;100355.00;;;10.00
71564;BMP180;59391;52.504;13.438;2022-12-24T07:47:25;100369.00;;;10.00
71564;BMP180;59391;52.504;13.438;2022-12-24T07:49:51;100368.00;;;10.00
71564;BMP180;59391;52.504;13.438;2022-12-24T07:52:16;100370.00;;;10.00
71564;BMP180;59391;52.504;13.438;2022-12-24T07:54:42;100371.00;;;10.00
71564;BMP180;59391;52.504;13.438;2022-12-24T07:57:07;100382.00;;;10.00
71564;BMP180;59391;52.504;13.438;2022-12-24T07:59:33;100393.00;;;10.00
71564;BMP180;59391;52.504;13.438;2022-12-24T08:01:59;100383.00;;;10.00
71564;BMP180;59391;52.504;13.438;2022-12-24T08:04:24;100378.00;;;10.00
71564;BMP180;59391;52.504;13.438;2022-12-24T08:06:50;100379.00;;;10.10
71564;BMP180;59391;52.504;13.438;2022-12-24T08:09:16;100380.00;;;10.10
71564;BMP180;59391;52.504;13.438;2022-12-24T08:11:42;100385.00;;;10.10
71564;BMP180;59391;52.504;13.438;2022-12-24T08:14:07;100394.00;;;10.10
71564;BMP180;59391;52.504;13.438;2022-12-24T08:16:33;100390.00;;;10.10
71564;BMP180;59391;52.504;13.438;2022-12-24T08:18:59;100396.00;;;10.10
71564;BMP180;59391;52.504;13.438;2022-12-24T08:21:24;100386.00;;;10.10
71564;BMP180;59391;52.504;13.438;2022-12-24T08:23:50;100395.00;;;10.10
71564;BMP180;59391;52.504;13.438;2022-12-24T08:26:16;100387.00;;;10.10
71564;BMP180;59391;52.504;13.438;2022-12-24T08:28:41;100385.00;;;10.10
71564;BMP180;59391;52.504;13.438;2022-12-24T08:31:07;100387.00;;;10.10
71564;BMP180;59391;52.504;13.438;2022-12-24T08:33:32;100398.00;;;10.10
71564;BMP180;59391;52.504;13.438;2022-12-24T08:36:00;100407.00;;;10.10
71564;BMP180;59391;52.504;13.438;2022-12-24T08:38:26;100401.00;;;10.10
71564;BMP180;59391;52.504;13.438;2022-12-24T08:40:53;100400.00;;;10.10
71564;BMP180;59391;52.504;13.438;2022-12-24T08:43:19;100404.00;;;10.10
71564;BMP180;59391;52.504;13.438;2022-12-24T08:45:46;100415.00;;;10.20
71564;BMP180;59391;52.504;13.438;2022-12-24T08:48:14;100415.00;;;10.20
71564;BMP180;59391;52.504;13.438;2022-12-24T08:50:41;100413.00;;;10.20
71564;BMP180;59391;52.504;13.438;2022-12-24T08:53:08;100419.00;;;10.20
71564;BMP180;59391;52.504;13.438;2022-12-24T08:55:35;100417.00;;;10.20
71564;BMP180;59391;52.504;13.438;2022-12-24T08:58:00;100425.00;;;10.20
71564;BMP180;59391;52.504;13.438;2022-12-24T09:00:27;100419.00;;;10.30
71564;BMP180;59391;52.504;13.438;2022-12-24T09:02:53;100416.00;;;10.30
71564;BMP180;59391;52.504;13.438;2022-12-24T09:05:18;100419.00;;;10.30
71564;BMP180;59391;52.504;13.438;2022-12-24T09:07:44;100426.00;;;10.30
71564;BMP180;59391;52.504;13.438;2022-12-24T09:10:10;100434.00;;;10.30
71564;BMP180;59391;52.504;13.438;2022-12-24T09:12:37;100430.00;;;10.30
71564;BMP180;59391;52.504;13.438;2022-12-24T09:15:03;100450.00;;;10.30
71564;BMP180;59391;52.504;13.438;2022-12-24T09:17:33;100450.00;;;10.30
71564;BMP180;59391;52.504;13.438;2022-12-24T09:19:58;100440.00;;;10.30
71564;BMP180;59391;52.504;13.438;2022-12-24T09:22:24;100458.00;;;10.40
71564;BMP180;59391;52.504;13.438;2022-12-24T09:24:52;100450.00;;;10.40
71564;BMP180;59391;52.504;13.438;2022-12-24T09:27:18;100455.00;;;10.40
71564;BMP180;59391;52.504;13.438;2022-12-24T09:29:43;100468.00;;;10.40
71564;BMP180;59391;52.504;13.438;2022-12-24T09:32:09;100458.00;;;10.40
71564;BMP180;59391;52.504;13.438;2022-12-24T09:34:36;100472.00;;;10.40
71564;BMP180;59391;52.504;13.438;2022-12-24T09:37:01;100476.00;;;10.50
71564;BMP180;59391;52.504;13.438;2022-12-24T09:39:28;100480.00;;;10.50
71564;BMP180;59391;52.504;13.438;2022-12-24T09:42:18;100481.00;;;10.50
71564;BMP180;59391;52.504;13.438;2022-12-24T09:45:34;100494.00;;;10.50
71564;BMP180;59391;52.504;13.438;2022-12-24T09:47:59;100497.00;;;10.60
71564;BMP180;59391;52.504;13.438;2022-12-24T09:50:41;100498.00;;;10.60
71564;BMP180;59391;52.504;13.438;2022-12-24T09:56:03;100490.00;;;10.60
71564;BMP180;59391;52.504;13.438;2022-12-24T09:58:40;100508.00;;;10.60
71564;BMP180;59391;52.504;13.438;2022-12-24T10:01:10;100509.00;;;10.70
71564;BMP180;59391;52.504;13.438;2022-12-24T10:03:36;100517.00;;;10.70
71564;BMP180;59391;52.504;13.438;2022-12-24T10:06:17;100524.00;;;10.70
71564;BMP180;59391;52.504;13.438;2022-12-24T10:09:04;100526.00;;;10.70
71564;BMP180;59391;52.504;13.438;2022-12-24T10:12:14;100541.00;;;10.70
71564;BMP180;59391;52.504;13.438;2022-12-24T10:15:09;100526.00;;;10.70
71564;BMP180;59391;52.504;13.438;2022-12-24T10:18:11;100534.00;;;10.70
71564;BMP180;59391;52.504;13.438;2022-12-24T10:21:09;100527.00;;;10.80
71564;BMP180;59391;52.504;13.438;2022-12-24T10:23:54;100542.00;;;10.80
71564;BMP180;59391;52.504;13.438;2022-12-24T10:29:43;100549.00;;;10.90
71564;BMP180;59391;52.504;13.438;2022-12-24T10:32:27;100541.00;;;10.90
71564;BMP180;59391;52.504;13.438;2022-12-24T10:35:10;100540.00;;;10.90
71564;BMP180;59391;52.504;13.438;2022-12-24T10:37:43;100561.00;;;11.00
71564;BMP180;59391;52.504;13.438;2022-12-24T10:40:34;100551.00;;;11.00
71564;BMP180;59391;52.504;13.438;2022-12-24T10:43:17;100555.00;;;11.00
71564;BMP180;59391;52.504;13.438;2022-12-24T10:45:51;100575.00;;;11.00
71564;BMP180;59391;52.504;13.438;2022-12-24T10:48:28;100564.00;;;11.00
71564;BMP180;59391;52.504;13.438;2022-12-24T10:51:10;100570.00;;;11.00
71564;BMP180;59391;52.504;13.438;2022-12-24T10:53:50;100570.00;;;11.10
71564;BMP180;59391;52.504;13.438;2022-12-24T10:56:19;100563.00;;;11.10
71564;BMP180;59391;52.504;13.438;2022-12-24T10:58:52;100575.00;;;11.10
71564;BMP180;59391;52.504;13.438;2022-12-24T11:01:19;100589.00;;;11.20
71564;BMP180;59391;52.504;13.438;2022-12-24T11:04:00;100588.00;;;11.20
71564;BMP180;59391;52.504;13.438;2022-12-24T11:06:26;100595.00;;;11.30
71564;BMP180;59391;52.504;13.438;2022-12-24T11:08:52;100603.00;;;11.30
71564;BMP180;59391;52.504;13.438;2022-12-24T11:11:20;100594.00;;;11.30
71564;BMP180;59391;52.504;13.438;2022-12-24T11:13:54;100575.00;;;11.30
71564;BMP180;59391;52.504;13.438;2022-12-24T11:16:32;100594.00;;;11.30
71564;BMP180;59391;52.504;13.438;2022-12-24T11:19:02;100592.00;;;11.40
71564;BMP180;59391;52.504;13.438;2022-12-24T11:21:31;100597.00;;;11.40
71564;BMP180;59391;52.504;13.438;2022-12-24T11:24:27;100600.00;;;11.40
71564;BMP180;59391;52.504;13.438;2022-12-24T11:26:54;100605.00;;;11.40
71564;BMP180;59391;52.504;13.438;2022-12-24T11:29:27;100577.00;;;11.40
71564;BMP180;59391;52.504;13.438;2022-12-24T11:32:19;100598.00;;;11.50
71564;BMP180;59391;52.504;13.438;2022-12-24T11:34:45;100597.00;;;11.50
71564;BMP180;59391;52.504;13.438;2022-12-24T11:37:19;100590.00;;;11.60
71564;BMP180;59391;52.504;13.438;2022-12-24T11:39:53;100602.00;;;11.70
71564;BMP180;59391;52.504;13.438;2022-12-24T11:42:32;100603.00;;;11.70
71564;BMP180;59391;52.504;13.438;2022-12-24T11:45:04;100623.00;;;11.70
71564;BMP180;59391;52.504;13.438;2022-12-24T11:47:39;100609.00;;;11.80
71564;BMP180;59391;52.504;13.438;2022-12-24T11:55:44;100618.00;;;11.80
71564;BMP180;59391;52.504;13.438;2022-12-24T11:58:44;100631.00;;;11.70
71564;BMP180;59391;52.504;13.438;2022-12-24T12:01:38;100639.00;;;11.90
71564;BMP180;59391;52.504;13.438;2022-12-24T12:06:47;100633.00;;;11.90
71564;BMP180;59391;52.504;13.438;2022-12-24T12:09:36;100645.00;;;11.90
71564;BMP180;59391;52.504;13.438;2022-12-24T12:12:20;100628.00;;;11.90
71564;BMP180;59391;52.504;13.438;2022-12-24T12:16:06;100636.00;;;11.90
71564;BMP180;59391;52.504;13.438;2022-12-24T12:18:28;100602.00;;;11.90
71564;BMP180;59391;52.504;13.438;2022-12-24T12:21:24;100596.00;;;11.90
71564;BMP180;59391;52.504;13.438;2022-12-24T12:24:00;100567.00;;;12.00
71564;BMP180;59391;52.504;13.438;2022-12-24T12:26:31;100646.00;;;11.80
71564;BMP180;59391;52.504;13.438;2022-12-24T12:29:23;100639.00;;;12.10
71564;BMP180;59391;52.504;13.438;2022-12-24T12:32:05;100592.00;;;12.20
71564;BMP180;59391;52.504;13.438;2022-12-24T12:37:27;100646.00;;;12.30
71564;BMP180;59391;52.504;13.438;2022-12-24T12:39:54;100631.00;;;12.40
71564;BMP180;59391;52.504;13.438;2022-12-24T12:42:38;100659.00;;;12.50
71564;BMP180;59391;52.504;13.438;2022-12-24T12:45:38;100661.00;;;12.50
71564;BMP180;59391;52.504;13.438;2022-12-24T12:51:07;100663.00;;;12.50
71564;BMP180;59391;52.504;13.438;2022-12-24T12:56:34;100680.00;;;12.50
71564;BMP180;59391;52.504;13.438;2022-12-24T12:59:08;100674.00;;;12.60
71564;BMP180;59391;52.504;13.438;2022-12-24T13:05:01;100676.00;;;12.60
71564;BMP180;59391;52.504;13.438;2022-12-24T13:08:11;100671.00;;;12.60
71564;BMP180;59391;52.504;13.438;2022-12-24T13:11:04;100675.00;;;12.60
71564;BMP180;59391;52.504;13.438;2022-12-24T13:17:01;100666.00;;;12.70
71564;BMP180;59391;52.504;13.438;2022-12-24T13:19:58;100685.00;;;12.70
71564;BMP180;59391;52.504;13.438;2022-12-24T13:22:28;100673.00;;;12.70
71564;BMP180;59391;52.504;13.438;2022-12-24T13:24:55;100677.00;;;12.80
71564;BMP180;59391;52.504;13.438;2022-12-24T13:27:31;100676.00;;;12.80
71564;BMP180;59391;52.504;13.438;2022-12-24T13:33:01;100691.00;;;12.80
71564;BMP180;59391;52.504;13.438;2022-12-24T13:35:30;100691.00;;;12.80
71564;BMP180;59391;52.504;13.438;2022-12-24T13:49:39;100694.00;;;12.90
71564;BMP180;59391;52.504;13.438;2022-12-24T13:57:42;100714.00;;;12.90
71564;BMP180;59391;52.504;13.438;2022-12-24T14:02:53;100740.00;;;12.90
71564;BMP180;59391;52.504;13.438;2022-12-24T14:05:35;100748.00;;;12.90
71564;BMP180;59391;52.504;13.438;2022-12-24T14:08:07;100741.00;;;12.90
71564;BMP180;59391;52.504;13.438;2022-12-24T14:10:43;100730.00;;;13.00
71564;BMP180;59391;52.504;13.438;2022-12-24T14:16:12;100759.00;;;13.00
71564;BMP180;59391;52.504;13.438;2022-12-24T14:18:47;100746.00;;;13.00
71564;BMP180;59391;52.504;13.438;2022-12-24T14:24:36;100769.00;;;13.00
71564;BMP180;59391;52.504;13.438;2022-12-24T14:27:25;100774.00;;;13.00
71564;BMP180;59391;52.504;13.438;2022-12-24T14:30:19;100774.00;;;13.00
71564;BMP180;59391;52.504;13.438;2022-12-24T14:32:46;100776.00;;;13.00
71564;BMP180;59391;52.504;13.438;2022-12-24T14:37:40;100779.00;;;13.00
71564;BMP180;59391;52.504;13.438;2022-12-24T14:40:12;100765.00;;;13.00
71564;BMP180;59391;52.504;13.438;2022-12-24T14:43:10;100788.00;;;13.00
71564;BMP180;59391;52.504;13.438;2022-12-24T14:46:12;100779.00;;;13.00
71564;BMP180;59391;52.504;13.438;2022-12-24T14:51:49;100792.00;;;12.90
71564;BMP180;59391;52.504;13.438;2022-12-24T14:54:38;100802.00;;;12.90
71564;BMP180;59391;52.504;13.438;2022-12-24T14:59:59;100810.00;;;12.90
71564;BMP180;59391;52.504;13.438;2022-12-24T15:05:24;100817.00;;;12.90
71564;BMP180;59391;52.504;13.438;2022-12-24T15:08:00;100816.00;;;12.90
71564;BMP180;59391;52.504;13.438;2022-12-24T15:10:51;100819.00;;;12.90
71564;BMP180;59391;52.504;13.438;2022-12-24T15:13:27;100812.00;;;12.90
71564;BMP180;59391;52.504;13.438;2022-12-24T15:15:59;100830.00;;;12.90
71564;BMP180;59391;52.504;13.438;2022-12-24T15:18:31;100811.00;;;12.80
71564;BMP180;59391;52.504;13.438;2022-12-24T15:21:02;100837.00;;;12.80
71564;BMP180;59391;52.504;13.438;2022-12-24T15:23:33;100827.00;;;12.80
71564;BMP180;59391;52.504;13.438;2022-12-24T15:26:21;100846.00;;;12.80
71564;BMP180;59391;52.504;13.438;2022-12-24T15:28:48;100850.00;;;12.80
71564;BMP180;59391;52.504;13.438;2022-12-24T15:31:19;100835.00;;;12.80
71564;BMP180;59391;52.504;13.438;2022-12-24T15:33:47;100859.00;;;12.80
71564;BMP180;59391;52.504;13.438;2022-12-24T15:36:16;100861.00;;;12.70
71564;BMP180;59391;52.504;13.438;2022-12-24T15:38:52;100860.00;;;12.70
71564;BMP180;59391;52.504;13.438;2022-12-24T15:41:23;100859.00;;;12.70
71564;BMP180;59391;52.504;13.438;2022-12-24T15:43:59;100854.00;;;12.70
71564;BMP180;59391;52.504;13.438;2022-12-24T15:46:28;100846.00;;;12.70
71564;BMP180;59391;52.504;13.438;2022-12-24T15:48:57;100868.00;;;12.60
71564;BMP180;59391;52.504;13.438;2022-12-24T15:51:34;100878.00;;;12.60
71564;BMP180;59391;52.504;13.438;2022-12-24T15:54:06;100853.00;;;12.50
71564;BMP180;59391;52.504;13.438;2022-12-24T15:56:40;100883.00;;;12.50
71564;BMP180;59391;52.504;13.438;2022-12-24T16:01:46;100836.00;;;12.50
71564;BMP180;59391;52.504;13.438;2022-12-24T16:04:27;100883.00;;;12.40